createdAt,value
2022-11-18T00:01:36.503Z,94013.22
2022-11-18T00:04:03.356Z,94007.88
2022-11-18T00:06:31.179Z,94000.19
2022-11-18T00:09:00.250Z,94000.75
2022-11-18T00:11:45.855Z,93995.81
2022-11-18T00:14:19.079Z,93994.91
2022-11-18T00:17:03.271Z,94006.53
2022-11-18T00:19:38.289Z,94003.28
2022-11-18T00:22:06.501Z,94006.38
2022-11-18T00:24:34.134Z,94005.69
2022-11-18T00:27:00.939Z,94014.03
2022-11-18T00:29:28.484Z,93991.88
2022-11-18T00:31:56.285Z,94003.16
2022-11-18T00:34:23.878Z,94006.19
2022-11-18T00:36:50.775Z,94012.94
2022-11-18T00:39:20.256Z,93999.63
2022-11-18T00:42:05.676Z,93998.72
2022-11-18T00:44:32.589Z,94003.34
2022-11-18T00:46:59.287Z,94000.81
2022-11-18T00:49:26.092Z,94012.22
2022-11-18T00:51:52.803Z,93999.16
2022-11-18T00:54:19.572Z,94003.50
2022-11-18T00:56:46.172Z,94009.41
2022-11-18T00:59:12.736Z,94011.19
2022-11-18T01:01:39.413Z,94012.41
2022-11-18T01:04:06.247Z,94001.59
2022-11-18T01:06:32.947Z,94007.16
2022-11-18T01:08:59.730Z,94014.66
2022-11-18T01:11:45.359Z,94004.59
2022-11-18T01:14:12.112Z,93996.50
2022-11-18T01:16:39.250Z,94016.50
2022-11-18T01:19:05.950Z,94002.81
2022-11-18T01:21:32.808Z,94008.84
2022-11-18T01:23:59.825Z,94012.72
2022-11-18T01:26:27.067Z,94021.75
2022-11-18T01:28:57.813Z,94004.03
2022-11-18T01:31:25.331Z,94020.41
2022-11-18T01:33:52.646Z,94018.59
2022-11-18T01:36:22.381Z,94015.75
2022-11-18T01:38:49.156Z,94025.38
2022-11-18T01:41:16.675Z,94019.97
2022-11-18T01:43:54.055Z,94015.59
2022-11-18T01:46:22.055Z,94010.19
2022-11-18T01:48:54.120Z,94012.59
2022-11-18T01:51:26.932Z,94012.88
2022-11-18T01:54:02.349Z,94016.75
2022-11-18T01:56:59.663Z,93983.88
2022-11-18T01:59:31.070Z,94025.03
2022-11-18T02:02:00.084Z,94028.03
2022-11-18T02:04:27.870Z,94015.69
2022-11-18T02:06:55.520Z,94018.72
2022-11-18T02:09:23.030Z,94025.78
2022-11-18T02:11:54.730Z,94010.00
2022-11-18T02:14:29.781Z,94022.19
2022-11-18T02:17:02.534Z,94015.69
2022-11-18T02:20:00.984Z,93998.44
2022-11-18T02:22:36.714Z,94013.28
2022-11-18T02:25:18.506Z,94012.38
2022-11-18T02:28:16.138Z,94008.63
2022-11-18T02:31:00.478Z,93998.22
2022-11-18T02:33:55.582Z,94003.50
2022-11-18T02:36:36.343Z,93997.44
2022-11-18T02:39:13.550Z,93990.34
2022-11-18T02:41:42.954Z,94002.50
2022-11-18T02:44:14.092Z,93976.91
2022-11-18T02:46:44.510Z,93993.75
2022-11-18T02:49:36.155Z,94000.66
2022-11-18T02:52:04.950Z,94009.56
2022-11-18T02:54:34.758Z,93999.53
2022-11-18T02:57:04.376Z,94018.66
2022-11-18T02:59:31.239Z,94019.00
2022-11-18T03:01:57.909Z,94002.03
2022-11-18T03:04:26.153Z,94001.59
2022-11-18T03:07:11.158Z,94015.53
2022-11-18T03:09:41.452Z,94002.31
2022-11-18T03:12:08.059Z,94020.22
2022-11-18T03:15:04.530Z,94008.03
2022-11-18T03:18:00.112Z,94010.91
2022-11-18T03:20:35.298Z,93995.28
2022-11-18T03:23:23.835Z,94005.94
2022-11-18T03:25:55.592Z,93994.84
2022-11-18T03:28:25.087Z,94008.81
2022-11-18T03:31:02.936Z,94014.84
2022-11-18T03:33:39.273Z,94006.72
2022-11-18T03:36:10.312Z,93987.97
2022-11-18T03:38:43.094Z,94006.44
2022-11-18T03:41:12.987Z,93987.19
2022-11-18T03:43:45.384Z,93995.91
2022-11-18T03:46:21.021Z,93997.38
2022-11-18T03:48:55.100Z,93990.47
2022-11-18T03:51:36.871Z,93974.84
2022-11-18T03:54:09.674Z,93968.88
2022-11-18T03:56:42.729Z,93970.09
2022-11-18T03:59:20.388Z,93992.56
2022-11-18T04:02:21.224Z,93974.84
2022-11-18T04:04:51.491Z,93972.28
2022-11-18T04:07:38.869Z,93992.72
2022-11-18T04:10:18.265Z,93992.72
2022-11-18T04:13:04.786Z,93983.22
2022-11-18T04:15:36.650Z,93992.88
2022-11-18T04:18:05.131Z,93986.84
2022-11-18T04:20:32.463Z,93988.34
2022-11-18T04:23:05.706Z,94002.63
2022-11-18T04:25:32.453Z,94009.13
2022-11-18T04:27:59.062Z,94001.91
2022-11-18T04:30:25.855Z,93992.31
2022-11-18T04:32:52.550Z,94004.16
2022-11-18T04:35:19.371Z,94006.72
2022-11-18T04:37:46.042Z,93994.13
2022-11-18T04:40:12.979Z,94010.66
2022-11-18T04:42:39.966Z,94020.25
2022-11-18T04:45:07.529Z,94024.28
2022-11-18T04:47:34.398Z,94021.91
2022-11-18T04:50:01.165Z,94013.63
2022-11-18T04:52:28.064Z,94027.44
2022-11-18T04:54:54.948Z,94028.19
2022-11-18T04:57:22.171Z,94025.22
2022-11-18T04:59:49.020Z,94024.75
2022-11-18T05:02:15.996Z,94035.56
2022-11-18T05:04:43.044Z,94025.38
2022-11-18T05:07:14.614Z,94023.88
2022-11-18T05:09:41.307Z,94019.78
2022-11-18T05:12:30.648Z,94020.25
2022-11-18T05:14:57.341Z,94016.31
2022-11-18T05:17:24.114Z,94026.97
2022-11-18T05:19:50.932Z,94035.09
2022-11-18T05:22:17.572Z,94017.06
2022-11-18T05:24:44.271Z,94018.41
2022-11-18T05:27:11.852Z,94030.28
2022-11-18T05:29:38.874Z,94040.66
2022-11-18T05:32:05.781Z,94027.91
2022-11-18T05:34:32.629Z,94003.81
2022-11-18T05:37:00.206Z,94044.38
2022-11-18T05:39:27.077Z,94035.97
2022-11-18T05:42:12.477Z,94025.28
2022-11-18T05:44:39.241Z,94032.06
2022-11-18T05:47:06.111Z,94033.06
2022-11-18T05:49:32.853Z,94012.63
2022-11-18T05:51:59.516Z,94029.41
2022-11-18T05:54:27.884Z,94023.13
2022-11-18T05:56:54.909Z,94031.25
2022-11-18T05:59:21.627Z,94028.56
2022-11-18T06:02:03.454Z,94027.63
2022-11-18T06:04:38.088Z,94028.19
2022-11-18T06:07:14.437Z,94024.72
2022-11-18T06:09:45.047Z,94021.63
2022-11-18T06:12:16.173Z,94026.66
2022-11-18T06:14:47.402Z,94027.91
2022-11-18T06:17:29.606Z,94039.78
2022-11-18T06:19:57.100Z,94041.28
2022-11-18T06:22:24.466Z,94030.38
2022-11-18T06:24:51.247Z,94001.97
2022-11-18T06:27:19.011Z,94014.28
2022-11-18T06:29:45.729Z,94030.34
2022-11-18T06:32:12.495Z,94035.16
2022-11-18T06:34:41.699Z,94009.31
2022-11-18T06:37:22.465Z,94021.53
2022-11-18T06:39:49.525Z,94018.84
2022-11-18T06:42:36.100Z,94022.63
2022-11-18T06:45:04.401Z,94023.78
2022-11-18T06:47:31.055Z,94005.91
2022-11-18T06:49:57.865Z,94023.16
2022-11-18T06:52:24.633Z,94020.28
2022-11-18T06:54:51.328Z,94026.00
2022-11-18T06:57:17.979Z,94022.25
2022-11-18T06:59:44.563Z,94021.28
2022-11-18T07:02:11.188Z,94029.72
2022-11-18T07:04:40.956Z,94020.09
2022-11-18T07:07:08.519Z,94009.78
2022-11-18T07:09:36.424Z,94015.22
2022-11-18T07:12:04.642Z,94011.38
2022-11-18T07:14:32.456Z,94022.44
2022-11-18T07:16:59.152Z,94015.59
2022-11-18T07:19:25.787Z,94002.09
2022-11-18T07:21:52.471Z,93986.38
2022-11-18T07:24:19.102Z,94003.00
2022-11-18T07:26:46.273Z,94005.34
2022-11-18T07:29:12.913Z,94005.56
2022-11-18T07:31:40.121Z,93997.13
2022-11-18T07:34:08.016Z,93989.38
2022-11-18T07:36:36.037Z,93970.84
2022-11-18T07:39:05.203Z,93997.16
2022-11-18T07:41:32.398Z,93987.50
2022-11-18T07:44:01.572Z,94000.53
2022-11-18T07:46:36.838Z,94000.44
2022-11-18T07:49:06.163Z,94002.09
2022-11-18T07:51:35.659Z,94003.13
2022-11-18T07:54:07.006Z,93980.81
2022-11-18T07:56:33.730Z,94001.22
2022-11-18T07:59:00.363Z,94009.47
2022-11-18T08:01:31.044Z,93997.28
2022-11-18T08:04:03.953Z,93958.03
2022-11-18T08:06:32.841Z,94003.69
2022-11-18T08:08:59.484Z,94017.00
2022-11-18T08:11:26.114Z,94017.84
2022-11-18T08:13:52.909Z,94006.41
2022-11-18T08:16:25.428Z,94008.81
2022-11-18T08:18:52.924Z,93996.00
2022-11-18T08:21:21.079Z,93998.47
2022-11-18T08:23:53.163Z,94000.34
2022-11-18T08:26:20.726Z,93982.09
2022-11-18T08:28:47.892Z,93989.75
2022-11-18T08:31:17.386Z,94006.81
2022-11-18T08:33:45.727Z,93979.00
2022-11-18T08:36:18.356Z,93985.25
2022-11-18T08:38:45.183Z,93976.00
2022-11-18T08:41:14.681Z,93962.16
2022-11-18T08:43:41.551Z,93957.66
2022-11-18T08:46:08.310Z,93957.94
2022-11-18T08:48:35.125Z,93975.16
2022-11-18T08:51:02.406Z,93946.28
2022-11-18T08:53:29.287Z,93936.19
2022-11-18T08:55:57.797Z,93930.06
2022-11-18T08:58:25.033Z,93904.06
2022-11-18T09:00:51.787Z,93908.59
2022-11-18T09:03:18.568Z,93904.78
2022-11-18T09:05:45.703Z,93899.34
2022-11-18T09:08:12.528Z,93904.41
2022-11-18T09:10:39.270Z,93901.22
2022-11-18T09:13:25.313Z,93922.16
2022-11-18T09:15:52.644Z,93911.06
2022-11-18T09:18:19.239Z,93913.91
2022-11-18T09:20:57.627Z,93910.84
2022-11-18T09:23:24.395Z,93901.59
2022-11-18T09:26:06.372Z,93899.13
2022-11-18T09:28:34.078Z,93886.56
2022-11-18T09:31:05.236Z,93878.81
2022-11-18T09:33:32.094Z,93881.19
2022-11-18T09:35:58.739Z,93866.81
2022-11-18T09:38:25.402Z,93857.53
2022-11-18T09:41:20.044Z,93809.00
2022-11-18T09:44:23.221Z,93834.38
2022-11-18T09:46:59.048Z,93837.44
2022-11-18T09:49:40.585Z,93824.50
2022-11-18T09:52:12.952Z,93818.78
2022-11-18T09:54:40.315Z,93824.09
2022-11-18T09:57:19.333Z,93822.13
2022-11-18T09:59:46.780Z,93816.19
2022-11-18T10:02:13.538Z,93813.00
2022-11-18T10:04:40.688Z,93816.75
2022-11-18T10:07:18.748Z,93783.00
2022-11-18T10:09:48.191Z,93776.31
2022-11-18T10:12:39.931Z,93830.66
2022-11-18T10:15:34.704Z,93765.88
2022-11-18T10:18:04.964Z,93819.50
2022-11-18T10:20:47.036Z,93785.97
2022-11-18T10:23:55.642Z,93804.84
2022-11-18T10:26:55.720Z,93783.50
2022-11-18T10:29:24.217Z,93796.16
2022-11-18T10:32:12.339Z,93779.28
2022-11-18T10:34:54.261Z,93780.03
2022-11-18T10:37:34.724Z,93776.56
2022-11-18T10:40:27.565Z,93759.88
2022-11-18T10:42:54.878Z,93764.25
2022-11-18T10:45:21.546Z,93785.47
2022-11-18T10:48:09.436Z,93770.13
2022-11-18T10:50:39.125Z,93745.31
2022-11-18T10:53:26.730Z,93720.59
2022-11-18T10:56:04.689Z,93742.88
2022-11-18T10:58:35.377Z,93726.34
2022-11-18T11:01:14.290Z,93744.19
2022-11-18T11:04:12.406Z,93742.63
2022-11-18T11:06:39.253Z,93743.75
2022-11-18T11:09:09.507Z,93741.41
2022-11-18T11:11:55.741Z,93747.19
2022-11-18T11:14:51.361Z,93708.25
2022-11-18T11:17:37.986Z,93716.44
2022-11-18T11:20:15.739Z,93716.66
2022-11-18T11:22:42.942Z,93723.94
2022-11-18T11:25:28.251Z,93721.41
2022-11-18T11:28:18.525Z,93711.31
2022-11-18T11:31:26.128Z,93707.69
2022-11-18T11:34:15.060Z,93704.53
2022-11-18T11:36:56.996Z,93687.78
2022-11-18T11:39:47.887Z,93699.75
2022-11-18T11:43:07.153Z,93692.97
2022-11-18T11:46:00.150Z,93696.88
2022-11-18T11:48:54.665Z,93695.09
2022-11-18T11:51:39.358Z,93693.66
2022-11-18T11:54:11.714Z,93680.44
2022-11-18T11:56:52.232Z,93694.88
2022-11-18T11:59:43.626Z,93691.72
2022-11-18T12:02:31.616Z,93693.34
2022-11-18T12:05:01.799Z,93698.63
2022-11-18T12:07:33.723Z,93706.91
2022-11-18T12:10:25.634Z,93693.09
2022-11-18T12:13:13.920Z,93686.00
2022-11-18T12:15:55.911Z,93683.03
2022-11-18T12:18:31.420Z,93663.59
2022-11-18T12:20:58.222Z,93663.66
2022-11-18T12:23:27.402Z,93655.16
2022-11-18T12:25:55.365Z,93640.97
2022-11-18T12:28:35.333Z,93643.03
2022-11-18T12:31:20.858Z,93642.47
2022-11-18T12:33:52.180Z,93630.38
2022-11-18T12:36:31.681Z,93631.38
2022-11-18T12:39:19.019Z,93638.22
2022-11-18T12:42:04.193Z,93631.88
2022-11-18T12:44:31.540Z,93631.81
2022-11-18T12:47:02.544Z,93636.22
2022-11-18T12:49:29.056Z,93629.47
2022-11-18T12:52:00.551Z,93592.50
2022-11-18T12:54:38.904Z,93601.41
2022-11-18T12:57:17.624Z,93602.84
2022-11-18T12:59:44.281Z,93613.53
2022-11-18T13:02:10.808Z,93613.41
2022-11-18T13:04:44.342Z,93588.25
2022-11-18T13:07:32.457Z,93582.50
2022-11-18T13:09:59.284Z,93581.56
2022-11-18T13:12:29.528Z,93564.94
2022-11-18T13:15:15.288Z,93574.41
2022-11-18T13:17:52.182Z,93580.28
2022-11-18T13:20:35.678Z,93547.28
2022-11-18T13:23:29.935Z,93563.94
2022-11-18T13:26:14.575Z,93560.25
2022-11-18T13:28:51.947Z,93568.38
2022-11-18T13:31:33.251Z,93561.59
2022-11-18T13:34:19.067Z,93545.66
2022-11-18T13:36:48.630Z,93551.13
2022-11-18T13:39:22.491Z,93547.53
2022-11-18T13:42:14.640Z,93547.84
2022-11-18T13:44:55.357Z,93530.94
2022-11-18T13:47:40.764Z,93557.44
2022-11-18T13:50:22.585Z,93553.75
2022-11-18T13:53:09.375Z,93553.03
2022-11-18T13:55:49.228Z,93532.31
2022-11-18T13:58:18.838Z,93536.25
2022-11-18T14:01:26.206Z,93524.50
2022-11-18T14:04:01.936Z,93525.00
2022-11-18T14:06:31.960Z,93541.31
2022-11-18T14:09:23.004Z,93534.53
2022-11-18T14:12:12.381Z,93523.66
2022-11-18T14:14:41.680Z,93531.19
2022-11-18T14:17:23.162Z,93539.63
2022-11-18T14:19:53.286Z,93522.50
2022-11-18T14:22:22.980Z,93535.28
2022-11-18T14:24:57.775Z,93547.16
2022-11-18T14:27:44.249Z,93542.59
2022-11-18T14:30:27.290Z,93529.38
2022-11-18T14:33:06.095Z,93532.31
2022-11-18T14:35:34.969Z,93531.50
2022-11-18T14:40:56.079Z,93520.25
2022-11-18T14:43:23.749Z,93533.06
2022-11-18T14:45:52.101Z,93548.09
2022-11-18T14:48:21.913Z,93553.69
2022-11-18T14:50:48.805Z,93541.50
2022-11-18T14:53:15.859Z,93541.41
2022-11-18T14:55:43.861Z,93554.94
2022-11-18T14:58:14.594Z,93550.72
2022-11-18T15:00:46.789Z,93561.28
2022-11-18T15:03:13.789Z,93574.19
2022-11-18T15:05:40.826Z,93585.19
2022-11-18T15:08:08.280Z,93566.38
2022-11-18T15:10:35.929Z,93560.91
2022-11-18T15:13:02.659Z,93563.38
2022-11-18T15:15:29.519Z,93576.75
2022-11-18T15:17:56.406Z,93586.13
2022-11-18T15:20:23.471Z,93574.28
2022-11-18T15:22:50.101Z,93567.63
2022-11-18T15:25:16.964Z,93561.53
2022-11-18T15:27:43.592Z,93533.09
2022-11-18T15:30:13.556Z,93543.13
2022-11-18T15:32:40.577Z,93537.72
2022-11-18T15:35:08.095Z,93539.63
2022-11-18T15:37:34.941Z,93529.09
2022-11-18T15:40:01.603Z,93512.41
2022-11-18T15:42:28.417Z,93505.19
2022-11-18T15:44:55.104Z,93513.56
2022-11-18T15:47:22.038Z,93514.09
2022-11-18T15:49:48.617Z,93512.22
2022-11-18T15:52:15.233Z,93504.91
2022-11-18T15:54:41.874Z,93510.53
2022-11-18T15:57:08.485Z,93488.13
2022-11-18T15:59:35.118Z,93492.47
2022-11-18T16:02:01.819Z,93497.03
2022-11-18T16:04:28.465Z,93486.28
2022-11-18T16:06:55.144Z,93495.06
2022-11-18T16:09:22.504Z,93503.09
2022-11-18T16:12:08.564Z,93520.53
2022-11-18T16:14:37.571Z,93501.50
2022-11-18T16:17:04.440Z,93500.25
2022-11-18T16:19:33.561Z,93514.38
2022-11-18T16:22:00.298Z,93527.13
2022-11-18T16:24:29.123Z,93535.50
2022-11-18T16:26:56.660Z,93553.19
2022-11-18T16:29:24.956Z,93569.56
2022-11-18T16:34:39.521Z,93536.91
2022-11-18T16:37:06.368Z,93565.31
2022-11-18T16:39:32.988Z,93571.81
2022-11-18T16:40:28.282Z,93556.41
2022-11-18T16:42:08.255Z,93563.22
2022-11-18T16:44:35.958Z,93566.50
2022-11-18T16:47:04.489Z,93571.47
2022-11-18T16:49:34.873Z,93575.16
2022-11-18T16:52:01.502Z,93564.94
2022-11-18T16:54:30.960Z,93558.03
2022-11-18T16:56:59.450Z,93555.75
2022-11-18T16:59:28.347Z,93547.00
2022-11-18T17:01:57.589Z,93561.75
2022-11-18T17:04:26.641Z,93560.50
2022-11-18T17:06:54.104Z,93550.94
2022-11-18T17:09:23.154Z,93546.94
2022-11-18T17:11:51.422Z,93540.84
2022-11-18T17:14:19.675Z,93545.31
2022-11-18T17:16:46.378Z,93525.38
2022-11-18T17:19:19.337Z,93525.81
2022-11-18T17:21:48.307Z,93532.53
2022-11-18T17:24:17.891Z,93489.91
2022-11-18T17:26:45.649Z,93527.06
2022-11-18T17:29:13.451Z,93508.38
2022-11-18T17:31:41.795Z,93518.44
2022-11-18T17:34:13.217Z,93487.59
2022-11-18T17:36:41.064Z,93504.66
2022-11-18T17:39:11.140Z,93502.97
2022-11-18T17:41:57.145Z,93492.41
2022-11-18T17:44:24.806Z,93430.50
2022-11-18T17:46:51.794Z,93443.72
2022-11-18T17:49:21.319Z,93494.75
2022-11-18T17:51:49.215Z,93379.50
2022-11-18T17:54:16.374Z,93417.66
2022-11-18T17:56:43.756Z,93473.75
2022-11-18T17:59:10.483Z,93477.47
2022-11-18T18:01:37.386Z,93464.03
2022-11-18T18:04:04.310Z,93443.75
2022-11-18T18:06:31.270Z,93454.31
2022-11-18T18:08:59.371Z,93449.91
2022-11-18T18:11:27.589Z,93437.97
2022-11-18T18:14:13.553Z,93449.03
2022-11-18T18:16:45.981Z,93377.59
2022-11-18T18:19:15.990Z,93455.81
2022-11-18T18:21:43.127Z,93463.72
2022-11-18T18:24:11.219Z,93465.41
2022-11-18T18:26:38.956Z,93482.94
2022-11-18T18:29:06.242Z,93425.69
2022-11-18T18:31:35.960Z,93454.31
2022-11-18T18:34:03.687Z,93398.63
2022-11-18T18:36:31.312Z,93404.06
2022-11-18T18:38:59.618Z,93491.84
2022-11-18T18:41:27.536Z,93475.78
2022-11-18T18:43:54.626Z,93477.03
2022-11-18T18:46:30.958Z,93467.84
2022-11-18T18:49:04.132Z,93500.06
2022-11-18T18:51:37.212Z,93476.09
2022-11-18T18:54:05.338Z,93454.53
2022-11-18T18:56:33.409Z,93479.56
2022-11-18T18:59:00.831Z,93482.31
2022-11-18T19:01:29.169Z,93495.63
2022-11-18T19:03:58.293Z,93499.53
2022-11-18T19:06:51.614Z,93493.72
2022-11-18T19:09:15.417Z,93489.28
2022-11-18T19:12:01.437Z,93466.56
2022-11-18T19:14:29.729Z,93505.34
2022-11-18T19:16:57.720Z,93506.63
2022-11-18T19:19:45.492Z,93510.94
2022-11-18T19:22:14.748Z,93520.13
2022-11-18T19:24:49.687Z,93526.78
2022-11-18T19:27:16.987Z,93519.63
2022-11-18T19:29:43.894Z,93531.13
2022-11-18T19:32:11.172Z,93530.19
2022-11-18T19:34:38.074Z,93531.66
2022-11-18T19:37:05.346Z,93530.06
2022-11-18T19:39:32.667Z,93519.59
2022-11-18T19:41:59.678Z,93544.44
2022-11-18T19:44:26.519Z,93532.91
2022-11-18T19:46:54.064Z,93586.25
2022-11-18T19:49:21.375Z,93559.81
2022-11-18T19:51:48.518Z,93595.78
2022-11-18T19:54:15.578Z,93617.00
2022-11-18T19:56:42.690Z,93627.47
2022-11-18T19:59:13.623Z,93655.97
2022-11-18T20:01:41.170Z,93634.88
2022-11-18T20:04:09.926Z,93685.56
2022-11-18T20:06:37.524Z,93686.88
2022-11-18T20:09:08.146Z,93708.59
2022-11-18T20:11:36.833Z,93706.53
2022-11-18T20:14:03.930Z,93720.66
2022-11-18T20:16:33.608Z,93733.81
2022-11-18T20:19:07.786Z,93733.94
2022-11-18T20:21:36.237Z,93745.16
2022-11-18T20:24:04.886Z,93719.63
2022-11-18T20:26:37.528Z,93746.41
2022-11-18T20:29:06.974Z,93743.22
2022-11-18T20:31:35.457Z,93758.59
2022-11-18T20:34:03.025Z,93741.47
2022-11-18T20:36:33.075Z,93750.06
2022-11-18T20:39:11.769Z,93755.31
2022-11-18T20:41:38.711Z,93748.34
2022-11-18T20:44:06.263Z,93735.00
2022-11-18T20:46:34.658Z,93738.44
2022-11-18T20:49:02.037Z,93735.25
2022-11-18T20:51:29.676Z,93715.88
2022-11-18T20:54:01.176Z,93730.81
2022-11-18T20:56:28.712Z,93729.16
2022-11-18T20:58:58.666Z,93764.38
2022-11-18T21:01:28.254Z,93759.44
2022-11-18T21:04:03.756Z,93775.06
2022-11-18T21:06:32.540Z,93765.38
2022-11-18T21:09:02.840Z,93764.13
2022-11-18T21:11:30.427Z,93779.28
2022-11-18T21:14:21.871Z,93779.03
2022-11-18T21:16:51.587Z,93774.78
2022-11-18T21:19:18.745Z,93775.06
2022-11-18T21:21:45.761Z,93759.44
2022-11-18T21:24:15.806Z,93760.44
2022-11-18T21:26:43.525Z,93763.91
2022-11-18T21:29:12.459Z,93757.44
2022-11-18T21:31:40.140Z,93771.09
2022-11-18T21:34:07.682Z,93776.56
2022-11-18T21:36:36.265Z,93775.56
2022-11-18T21:39:06.302Z,93778.31
2022-11-18T21:41:33.321Z,93768.38
2022-11-18T21:44:07.464Z,93784.75
2022-11-18T21:46:35.971Z,93784.75
2022-11-18T21:49:04.072Z,93788.47
2022-11-18T21:51:33.683Z,93794.16
2022-11-18T21:54:01.340Z,93776.06
2022-11-18T21:56:31.632Z,93768.38
2022-11-18T21:59:00.527Z,93797.91
2022-11-18T22:01:29.994Z,93797.41
2022-11-18T22:03:58.592Z,93799.16
2022-11-18T22:06:26.605Z,93790.44
2022-11-18T22:08:53.372Z,93795.91
2022-11-18T22:11:23.626Z,93804.59
2022-11-18T22:13:52.165Z,93806.81
2022-11-18T22:16:22.210Z,93812.06
2022-11-18T22:18:56.084Z,93819.00
2022-11-18T22:21:26.392Z,93827.94
2022-11-18T22:23:57.218Z,93833.38
2022-11-18T22:26:23.900Z,93847.53
2022-11-18T22:28:56.179Z,93851.50
2022-11-18T22:31:23.853Z,93853.22
2022-11-18T22:33:52.362Z,93860.91
2022-11-18T22:36:22.042Z,93856.69
2022-11-18T22:38:49.586Z,93883.97
2022-11-18T22:41:40.561Z,93871.31
2022-11-18T22:44:09.035Z,93865.59
2022-11-18T22:46:36.871Z,93897.13
2022-11-18T22:49:04.797Z,93903.59
2022-11-18T22:51:32.061Z,93894.59
2022-11-18T22:56:46.403Z,93929.13
2022-11-18T22:59:13.608Z,93925.09
2022-11-18T23:01:40.524Z,93952.69
2022-11-18T23:04:07.537Z,93950.91
2022-11-18T23:06:34.418Z,93944.72
2022-11-18T23:09:01.477Z,93947.44
2022-11-18T23:11:50.137Z,93927.06
2022-11-18T23:14:17.025Z,93945.06
2022-11-18T23:16:44.295Z,93929.69
2022-11-18T23:19:13.791Z,93928.75
2022-11-18T23:21:41.257Z,93939.69
2022-11-18T23:24:11.176Z,93939.44
2022-11-18T23:26:38.488Z,93947.88
2022-11-18T23:29:05.908Z,93937.91
2022-11-18T23:31:33.117Z,93946.09
2022-11-18T23:34:00.156Z,93958.28
2022-11-18T23:36:27.662Z,93944.38
2022-11-18T23:38:54.601Z,93951.34
2022-11-18T23:41:21.589Z,93952.06
2022-11-18T23:43:52.182Z,93955.56
2022-11-18T23:46:19.566Z,93953.09
2022-11-18T23:48:47.794Z,93938.69
2022-11-18T23:51:16.859Z,93963.28
2022-11-18T23:53:45.008Z,93966.75
2022-11-18T23:56:15.384Z,93973.72
2022-11-18T23:58:44.516Z,93950.38
